sensor_id;sensor_type;location;lat;lon;timestamp;temperature;humidity
2995;DHT22;35277;49.890;8.222;2023-01-05T00:02:38;21.80;72.60
2995;DHT22;35277;49.890;8.222;2023-01-05T00:05:08;21.90;72.70
2995;DHT22;35277;49.890;8.222;2023-01-05T00:07:36;21.90;72.70
2995;DHT22;35277;49.890;8.222;2023-01-05T00:10:04;21.90;72.70
2995;DHT22;35277;49.890;8.222;2023-01-05T00:12:52;21.90;72.70
2995;DHT22;35277;49.890;8.222;2023-01-05T00:15:38;21.90;72.70
2995;DHT22;35277;49.890;8.222;2023-01-05T00:18:23;21.90;72.70
2995;DHT22;35277;49.890;8.222;2023-01-05T00:21:13;21.90;72.70
2995;DHT22;35277;49.890;8.222;2023-01-05T00:23:59;21.90;72.70
2995;DHT22;35277;49.890;8.222;2023-01-05T00:26:27;21.90;72.80
2995;DHT22;35277;49.890;8.222;2023-01-05T00:28:55;21.80;72.60
2995;DHT22;35277;49.890;8.222;2023-01-05T00:31:22;21.90;72.70
2995;DHT22;35277;49.890;8.222;2023-01-05T00:33:50;21.90;72.70
2995;DHT22;35277;49.890;8.222;2023-01-05T00:36:19;21.80;72.60
2995;DHT22;35277;49.890;8.222;2023-01-05T00:38:47;21.90;72.70
2995;DHT22;35277;49.890;8.222;2023-01-05T00:41:15;21.90;72.70
2995;DHT22;35277;49.890;8.222;2023-01-05T00:43:43;21.80;72.70
2995;DHT22;35277;49.890;8.222;2023-01-05T00:46:11;21.90;72.70
2995;DHT22;35277;49.890;8.222;2023-01-05T00:48:38;21.80;72.60
2995;DHT22;35277;49.890;8.222;2023-01-05T00:51:06;21.90;72.70
2995;DHT22;35277;49.890;8.222;2023-01-05T00:53:35;21.90;72.70
2995;DHT22;35277;49.890;8.222;2023-01-05T00:56:03;21.90;72.70
2995;DHT22;35277;49.890;8.222;2023-01-05T00:58:31;21.90;72.70
2995;DHT22;35277;49.890;8.222;2023-01-05T01:00:59;21.90;72.80
2995;DHT22;35277;49.890;8.222;2023-01-05T01:03:27;21.90;72.80
2995;DHT22;35277;49.890;8.222;2023-01-05T01:05:55;21.90;72.80
2995;DHT22;35277;49.890;8.222;2023-01-05T01:08:23;21.90;72.80
2995;DHT22;35277;49.890;8.222;2023-01-05T01:10:52;21.90;72.80
2995;DHT22;35277;49.890;8.222;2023-01-05T01:13:22;21.80;72.70
2995;DHT22;35277;49.890;8.222;2023-01-05T01:15:50;21.90;72.80
2995;DHT22;35277;49.890;8.222;2023-01-05T01:18:17;21.90;72.80
2995;DHT22;35277;49.890;8.222;2023-01-05T01:20:45;21.90;72.80
2995;DHT22;35277;49.890;8.222;2023-01-05T01:23:13;21.90;72.80
2995;DHT22;35277;49.890;8.222;2023-01-05T01:25:41;21.90;72.80
2995;DHT22;35277;49.890;8.222;2023-01-05T01:28:10;21.80;72.70
2995;DHT22;35277;49.890;8.222;2023-01-05T01:30:37;21.80;72.70
2995;DHT22;35277;49.890;8.222;2023-01-05T01:33:05;21.90;72.80
2995;DHT22;35277;49.890;8.222;2023-01-05T01:35:36;21.90;72.80
2995;DHT22;35277;49.890;8.222;2023-01-05T01:38:04;21.80;72.80
2995;DHT22;35277;49.890;8.222;2023-01-05T01:40:37;21.90;72.80
2995;DHT22;35277;49.890;8.222;2023-01-05T01:43:11;21.90;72.80
2995;DHT22;35277;49.890;8.222;2023-01-05T01:45:39;21.90;72.80
2995;DHT22;35277;49.890;8.222;2023-01-05T01:48:09;21.90;72.80
2995;DHT22;35277;49.890;8.222;2023-01-05T01:50:41;21.80;72.70
2995;DHT22;35277;49.890;8.222;2023-01-05T01:53:14;21.90;72.80
2995;DHT22;35277;49.890;8.222;2023-01-05T01:55:43;21.80;72.70
2995;DHT22;35277;49.890;8.222;2023-01-05T01:58:16;21.90;72.80
2995;DHT22;35277;49.890;8.222;2023-01-05T02:00:46;21.90;72.80
2995;DHT22;35277;49.890;8.222;2023-01-05T02:03:14;21.90;72.80
2995;DHT22;35277;49.890;8.222;2023-01-05T02:05:42;21.90;72.80
2995;DHT22;35277;49.890;8.222;2023-01-05T02:08:10;21.90;72.80
2995;DHT22;35277;49.890;8.222;2023-01-05T02:10:52;21.90;72.80
2995;DHT22;35277;49.890;8.222;2023-01-05T02:13:34;21.80;72.70
2995;DHT22;35277;49.890;8.222;2023-01-05T02:16:13;21.90;72.80
2995;DHT22;35277;49.890;8.222;2023-01-05T02:18:59;21.90;72.80
2995;DHT22;35277;49.890;8.222;2023-01-05T02:21:36;21.80;72.70
2995;DHT22;35277;49.890;8.222;2023-01-05T02:24:32;21.80;72.80
2995;DHT22;35277;49.890;8.222;2023-01-05T02:27:43;21.90;72.80
2995;DHT22;35277;49.890;8.222;2023-01-05T02:33:09;21.90;72.80
2995;DHT22;35277;49.890;8.222;2023-01-05T02:35:43;21.90;72.80
2995;DHT22;35277;49.890;8.222;2023-01-05T02:38:20;21.90;72.80
2995;DHT22;35277;49.890;8.222;2023-01-05T02:40:54;21.80;72.70
2995;DHT22;35277;49.890;8.222;2023-01-05T02:43:23;21.90;72.80
2995;DHT22;35277;49.890;8.222;2023-01-05T02:45:51;21.80;72.70
2995;DHT22;35277;49.890;8.222;2023-01-05T02:48:21;21.90;72.80
2995;DHT22;35277;49.890;8.222;2023-01-05T02:50:52;21.80;72.70
2995;DHT22;35277;49.890;8.222;2023-01-05T02:53:25;21.90;72.80
2995;DHT22;35277;49.890;8.222;2023-01-05T02:55:56;21.80;72.70
2995;DHT22;35277;49.890;8.222;2023-01-05T02:58:33;21.90;72.80
2995;DHT22;35277;49.890;8.222;2023-01-05T03:01:06;21.90;72.70
2995;DHT22;35277;49.890;8.222;2023-01-05T03:03:39;21.90;72.80
2995;DHT22;35277;49.890;8.222;2023-01-05T03:06:11;21.90;72.80
2995;DHT22;35277;49.890;8.222;2023-01-05T03:08:47;21.90;72.70
2995;DHT22;35277;49.890;8.222;2023-01-05T03:11:17;21.90;72.70
2995;DHT22;35277;49.890;8.222;2023-01-05T03:14:08;21.90;72.70
2995;DHT22;35277;49.890;8.222;2023-01-05T03:16:37;21.90;72.70
2995;DHT22;35277;49.890;8.222;2023-01-05T03:19:10;21.90;72.70
2995;DHT22;35277;49.890;8.222;2023-01-05T03:21:59;21.90;72.70
2995;DHT22;35277;49.890;8.222;2023-01-05T03:24:46;21.80;73.40
2995;DHT22;35277;49.890;8.222;2023-01-05T03:27:37;21.80;72.60
2995;DHT22;35277;49.890;8.222;2023-01-05T03:30:28;21.90;72.70
2995;DHT22;35277;49.890;8.222;2023-01-05T03:33:19;21.90;72.70
2995;DHT22;35277;49.890;8.222;2023-01-05T03:36:10;21.90;72.70
2995;DHT22;35277;49.890;8.222;2023-01-05T03:38:42;21.90;72.60
2995;DHT22;35277;49.890;8.222;2023-01-05T03:41:14;21.80;72.50
2995;DHT22;35277;49.890;8.222;2023-01-05T03:43:45;21.90;72.60
2995;DHT22;35277;49.890;8.222;2023-01-05T03:46:16;21.90;72.60
2995;DHT22;35277;49.890;8.222;2023-01-05T03:48:46;21.90;72.60
2995;DHT22;35277;49.890;8.222;2023-01-05T03:51:18;21.90;72.60
2995;DHT22;35277;49.890;8.222;2023-01-05T03:53:46;21.90;72.60
2995;DHT22;35277;49.890;8.222;2023-01-05T03:56:14;21.90;72.50
2995;DHT22;35277;49.890;8.222;2023-01-05T03:58:41;21.80;72.40
2995;DHT22;35277;49.890;8.222;2023-01-05T04:01:09;21.80;72.40
2995;DHT22;35277;49.890;8.222;2023-01-05T04:03:38;21.90;72.50
2995;DHT22;35277;49.890;8.222;2023-01-05T04:06:07;21.80;72.40
2995;DHT22;35277;49.890;8.222;2023-01-05T04:08:38;21.80;72.40
2995;DHT22;35277;49.890;8.222;2023-01-05T04:11:13;21.90;72.50
2995;DHT22;35277;49.890;8.222;2023-01-05T04:13:45;21.90;72.40
2995;DHT22;35277;49.890;8.222;2023-01-05T04:16:14;21.90;72.40
2995;DHT22;35277;49.890;8.222;2023-01-05T04:18:42;21.80;72.30
2995;DHT22;35277;49.890;8.222;2023-01-05T04:21:12;21.90;72.40
2995;DHT22;35277;49.890;8.222;2023-01-05T04:23:41;21.90;72.40
2995;DHT22;35277;49.890;8.222;2023-01-05T04:26:09;21.80;72.30
2995;DHT22;35277;49.890;8.222;2023-01-05T04:28:36;21.80;72.30
2995;DHT22;35277;49.890;8.222;2023-01-05T04:31:04;21.90;72.40
2995;DHT22;35277;49.890;8.222;2023-01-05T04:33:32;21.80;72.30
2995;DHT22;35277;49.890;8.222;2023-01-05T04:36:02;21.90;72.30
2995;DHT22;35277;49.890;8.222;2023-01-05T04:38:31;21.80;72.20
2995;DHT22;35277;49.890;8.222;2023-01-05T04:41:01;21.90;72.30
2995;DHT22;35277;49.890;8.222;2023-01-05T04:43:29;21.90;72.30
2995;DHT22;35277;49.890;8.222;2023-01-05T04:45:59;21.90;72.30
2995;DHT22;35277;49.890;8.222;2023-01-05T04:48:28;21.90;72.30
2995;DHT22;35277;49.890;8.222;2023-01-05T04:50:57;21.90;72.30
2995;DHT22;35277;49.890;8.222;2023-01-05T04:53:29;21.80;72.20
2995;DHT22;35277;49.890;8.222;2023-01-05T04:56:00;21.80;72.10
2995;DHT22;35277;49.890;8.222;2023-01-05T04:58:33;21.90;72.20
2995;DHT22;35277;49.890;8.222;2023-01-05T05:01:01;21.80;72.10
2995;DHT22;35277;49.890;8.222;2023-01-05T05:03:32;21.90;72.20
2995;DHT22;35277;49.890;8.222;2023-01-05T05:06:04;21.90;72.20
2995;DHT22;35277;49.890;8.222;2023-01-05T05:08:32;21.80;72.10
2995;DHT22;35277;49.890;8.222;2023-01-05T05:11:03;21.90;72.20
2995;DHT22;35277;49.890;8.222;2023-01-05T05:13:35;21.90;72.20
2995;DHT22;35277;49.890;8.222;2023-01-05T05:16:03;21.90;72.20
2995;DHT22;35277;49.890;8.222;2023-01-05T05:18:32;21.90;72.10
2995;DHT22;35277;49.890;8.222;2023-01-05T05:21:01;21.90;72.10
2995;DHT22;35277;49.890;8.222;2023-01-05T05:23:32;21.80;72.00
2995;DHT22;35277;49.890;8.222;2023-01-05T05:26:00;21.90;72.00
2995;DHT22;35277;49.890;8.222;2023-01-05T05:28:30;21.90;72.00
2995;DHT22;35277;49.890;8.222;2023-01-05T05:30:57;21.80;71.90
2995;DHT22;35277;49.890;8.222;2023-01-05T05:33:26;21.80;71.90
2995;DHT22;35277;49.890;8.222;2023-01-05T05:35:53;21.90;71.90
2995;DHT22;35277;49.890;8.222;2023-01-05T05:38:21;21.80;71.80
2995;DHT22;35277;49.890;8.222;2023-01-05T05:40:49;21.80;71.80
2995;DHT22;35277;49.890;8.222;2023-01-05T05:43:16;21.80;71.80
2995;DHT22;35277;49.890;8.222;2023-01-05T05:45:46;21.80;71.70
2995;DHT22;35277;49.890;8.222;2023-01-05T05:48:16;21.80;71.70
2995;DHT22;35277;49.890;8.222;2023-01-05T05:50:45;21.80;71.70
2995;DHT22;35277;49.890;8.222;2023-01-05T05:53:13;21.80;71.70
2995;DHT22;35277;49.890;8.222;2023-01-05T05:55:40;21.80;71.70
2995;DHT22;35277;49.890;8.222;2023-01-05T05:58:08;21.80;71.60
2995;DHT22;35277;49.890;8.222;2023-01-05T06:00:36;21.80;71.90
2995;DHT22;35277;49.890;8.222;2023-01-05T06:03:05;21.80;72.50
2995;DHT22;35277;49.890;8.222;2023-01-05T06:05:33;21.80;72.80
2995;DHT22;35277;49.890;8.222;2023-01-05T06:08:01;21.90;73.00
2995;DHT22;35277;49.890;8.222;2023-01-05T06:10:29;21.90;73.20
2995;DHT22;35277;49.890;8.222;2023-01-05T06:12:57;21.90;73.40
2995;DHT22;35277;49.890;8.222;2023-01-05T06:15:25;21.90;73.50
2995;DHT22;35277;49.890;8.222;2023-01-05T06:17:52;21.90;73.50
2995;DHT22;35277;49.890;8.222;2023-01-05T06:20:21;21.90;73.70
2995;DHT22;35277;49.890;8.222;2023-01-05T06:22:49;21.90;73.80
2995;DHT22;35277;49.890;8.222;2023-01-05T06:25:17;21.90;74.00
2995;DHT22;35277;49.890;8.222;2023-01-05T06:27:45;22.00;74.00
2995;DHT22;35277;49.890;8.222;2023-01-05T06:30:13;22.00;74.10
2995;DHT22;35277;49.890;8.222;2023-01-05T06:32:40;22.00;74.10
2995;DHT22;35277;49.890;8.222;2023-01-05T06:35:08;22.00;74.30
2995;DHT22;35277;49.890;8.222;2023-01-05T06:37:38;22.00;74.30
2995;DHT22;35277;49.890;8.222;2023-01-05T06:40:06;22.00;74.30
2995;DHT22;35277;49.890;8.222;2023-01-05T06:42:35;22.00;74.30
2995;DHT22;35277;49.890;8.222;2023-01-05T06:45:03;22.00;74.30
2995;DHT22;35277;49.890;8.222;2023-01-05T06:47:32;22.00;74.30
2995;DHT22;35277;49.890;8.222;2023-01-05T06:50:00;21.90;74.10
2995;DHT22;35277;49.890;8.222;2023-01-05T06:52:27;22.00;74.10
2995;DHT22;35277;49.890;8.222;2023-01-05T06:54:56;21.90;73.90
2995;DHT22;35277;49.890;8.222;2023-01-05T06:57:24;21.90;73.90
2995;DHT22;35277;49.890;8.222;2023-01-05T06:59:52;21.90;73.80
2995;DHT22;35277;49.890;8.222;2023-01-05T07:02:20;21.90;73.70
2995;DHT22;35277;49.890;8.222;2023-01-05T07:04:47;21.90;73.60
2995;DHT22;35277;49.890;8.222;2023-01-05T07:07:15;21.90;73.60
2995;DHT22;35277;49.890;8.222;2023-01-05T07:09:43;21.90;73.50
2995;DHT22;35277;49.890;8.222;2023-01-05T07:12:16;21.90;73.50
2995;DHT22;35277;49.890;8.222;2023-01-05T07:14:44;21.90;73.40
2995;DHT22;35277;49.890;8.222;2023-01-05T07:17:11;21.90;73.40
2995;DHT22;35277;49.890;8.222;2023-01-05T07:19:39;21.90;73.40
2995;DHT22;35277;49.890;8.222;2023-01-05T07:22:07;21.90;73.30
2995;DHT22;35277;49.890;8.222;2023-01-05T07:24:35;21.90;73.20
2995;DHT22;35277;49.890;8.222;2023-01-05T07:27:03;21.80;73.10
2995;DHT22;35277;49.890;8.222;2023-01-05T07:29:36;21.90;73.10
2995;DHT22;35277;49.890;8.222;2023-01-05T07:32:04;21.90;73.10
2995;DHT22;35277;49.890;8.222;2023-01-05T07:34:32;21.90;73.10
2995;DHT22;35277;49.890;8.222;2023-01-05T07:37:00;21.90;73.00
2995;DHT22;35277;49.890;8.222;2023-01-05T07:39:28;21.80;72.90
2995;DHT22;35277;49.890;8.222;2023-01-05T07:41:55;21.90;72.90
2995;DHT22;35277;49.890;8.222;2023-01-05T07:44:25;21.90;72.90
2995;DHT22;35277;49.890;8.222;2023-01-05T07:46:54;21.90;72.80
2995;DHT22;35277;49.890;8.222;2023-01-05T07:49:21;21.90;72.80
2995;DHT22;35277;49.890;8.222;2023-01-05T07:51:49;21.90;72.80
2995;DHT22;35277;49.890;8.222;2023-01-05T07:54:17;21.80;73.00
2995;DHT22;35277;49.890;8.222;2023-01-05T07:56:47;21.90;72.70
2995;DHT22;35277;49.890;8.222;2023-01-05T07:59:14;21.80;72.60
2995;DHT22;35277;49.890;8.222;2023-01-05T08:01:42;21.90;72.70
2995;DHT22;35277;49.890;8.222;2023-01-05T08:04:11;21.90;72.70
2995;DHT22;35277;49.890;8.222;2023-01-05T08:06:39;21.90;72.70
2995;DHT22;35277;49.890;8.222;2023-01-05T08:09:07;21.90;72.60
2995;DHT22;35277;49.890;8.222;2023-01-05T08:11:49;21.80;72.60
2995;DHT22;35277;49.890;8.222;2023-01-05T08:14:16;21.90;72.70
2995;DHT22;35277;49.890;8.222;2023-01-05T08:16:44;21.90;72.80
2995;DHT22;35277;49.890;8.222;2023-01-05T08:19:13;21.90;72.80
2995;DHT22;35277;49.890;8.222;2023-01-05T08:21:41;21.90;72.90
2995;DHT22;35277;49.890;8.222;2023-01-05T08:24:09;21.90;72.90
2995;DHT22;35277;49.890;8.222;2023-01-05T08:26:36;21.80;72.80
2995;DHT22;35277;49.890;8.222;2023-01-05T08:29:04;21.90;73.10
2995;DHT22;35277;49.890;8.222;2023-01-05T08:31:32;21.90;73.60
2995;DHT22;35277;49.890;8.222;2023-01-05T08:34:03;21.90;74.00
2995;DHT22;35277;49.890;8.222;2023-01-05T08:36:33;21.90;74.30
2995;DHT22;35277;49.890;8.222;2023-01-05T08:39:01;21.90;74.50
2995;DHT22;35277;49.890;8.222;2023-01-05T08:41:31;22.00;74.80
2995;DHT22;35277;49.890;8.222;2023-01-05T08:44:00;22.00;75.90
2995;DHT22;35277;49.890;8.222;2023-01-05T08:46:31;22.00;75.20
2995;DHT22;35277;49.890;8.222;2023-01-05T08:49:01;21.90;75.10
2995;DHT22;35277;49.890;8.222;2023-01-05T08:51:30;21.90;75.20
2995;DHT22;35277;49.890;8.222;2023-01-05T08:53:59;22.00;75.40
2995;DHT22;35277;49.890;8.222;2023-01-05T08:56:26;22.00;75.50
2995;DHT22;35277;49.890;8.222;2023-01-05T08:59:03;22.00;75.50
2995;DHT22;35277;49.890;8.222;2023-01-05T09:01:31;22.00;75.50
2995;DHT22;35277;49.890;8.222;2023-01-05T09:03:59;22.00;75.50
2995;DHT22;35277;49.890;8.222;2023-01-05T09:06:27;22.00;75.50
2995;DHT22;35277;49.890;8.222;2023-01-05T09:08:55;22.00;75.50
2995;DHT22;35277;49.890;8.222;2023-01-05T09:11:24;22.00;75.50
2995;DHT22;35277;49.890;8.222;2023-01-05T09:13:54;22.00;75.50
2995;DHT22;35277;49.890;8.222;2023-01-05T09:16:23;22.00;75.50
2995;DHT22;35277;49.890;8.222;2023-01-05T09:19:11;22.00;75.40
2995;DHT22;35277;49.890;8.222;2023-01-05T09:21:40;22.00;75.40
2995;DHT22;35277;49.890;8.222;2023-01-05T09:24:09;22.00;75.40
2995;DHT22;35277;49.890;8.222;2023-01-05T09:26:40;22.00;75.40
2995;DHT22;35277;49.890;8.222;2023-01-05T09:29:08;22.00;75.40
2995;DHT22;35277;49.890;8.222;2023-01-05T09:31:36;22.00;75.30
2995;DHT22;35277;49.890;8.222;2023-01-05T09:34:04;22.00;75.30
2995;DHT22;35277;49.890;8.222;2023-01-05T09:36:31;22.00;75.20
2995;DHT22;35277;49.890;8.222;2023-01-05T09:38:59;22.00;75.20
2995;DHT22;35277;49.890;8.222;2023-01-05T09:41:30;22.00;75.10
2995;DHT22;35277;49.890;8.222;2023-01-05T09:44:03;22.00;75.10
2995;DHT22;35277;49.890;8.222;2023-01-05T09:46:34;22.00;75.00
2995;DHT22;35277;49.890;8.222;2023-01-05T09:49:06;22.00;75.00
2995;DHT22;35277;49.890;8.222;2023-01-05T09:51:38;22.00;74.90
2995;DHT22;35277;49.890;8.222;2023-01-05T09:54:06;22.00;74.90
2995;DHT22;35277;49.890;8.222;2023-01-05T09:56:38;22.00;74.80
2995;DHT22;35277;49.890;8.222;2023-01-05T09:59:32;22.00;74.80
2995;DHT22;35277;49.890;8.222;2023-01-05T10:02:06;22.00;74.80
2995;DHT22;35277;49.890;8.222;2023-01-05T10:04:40;22.00;74.70
2995;DHT22;35277;49.890;8.222;2023-01-05T10:07:19;22.00;74.60
2995;DHT22;35277;49.890;8.222;2023-01-05T10:09:52;22.00;74.60
2995;DHT22;35277;49.890;8.222;2023-01-05T10:12:24;22.00;74.60
2995;DHT22;35277;49.890;8.222;2023-01-05T10:15:17;22.00;74.50
2995;DHT22;35277;49.890;8.222;2023-01-05T10:17:45;22.00;74.40
2995;DHT22;35277;49.890;8.222;2023-01-05T10:20:16;22.00;74.30
2995;DHT22;35277;49.890;8.222;2023-01-05T10:22:52;22.00;74.30
2995;DHT22;35277;49.890;8.222;2023-01-05T10:25:28;22.00;74.20
2995;DHT22;35277;49.890;8.222;2023-01-05T10:28:10;22.00;74.20
2995;DHT22;35277;49.890;8.222;2023-01-05T10:30:51;22.00;74.10
2995;DHT22;35277;49.890;8.222;2023-01-05T10:33:31;22.00;74.10
2995;DHT22;35277;49.890;8.222;2023-01-05T10:36:22;22.00;74.10
2995;DHT22;35277;49.890;8.222;2023-01-05T10:39:25;22.00;74.00
2995;DHT22;35277;49.890;8.222;2023-01-05T10:41:59;22.00;74.00
2995;DHT22;35277;49.890;8.222;2023-01-05T10:44:47;22.00;74.00
2995;DHT22;35277;49.890;8.222;2023-01-05T10:47:20;22.00;74.00
2995;DHT22;35277;49.890;8.222;2023-01-05T10:49:49;22.00;74.00
2995;DHT22;35277;49.890;8.222;2023-01-05T10:52:19;22.00;74.00
2995;DHT22;35277;49.890;8.222;2023-01-05T10:54:50;22.00;74.00
2995;DHT22;35277;49.890;8.222;2023-01-05T10:57:33;22.00;74.10
2995;DHT22;35277;49.890;8.222;2023-01-05T11:00:15;22.10;74.20
2995;DHT22;35277;49.890;8.222;2023-01-05T11:02:49;22.00;74.30
2995;DHT22;35277;49.890;8.222;2023-01-05T11:05:24;22.00;74.70
2995;DHT22;35277;49.890;8.222;2023-01-05T11:07:54;22.00;74.90
2995;DHT22;35277;49.890;8.222;2023-01-05T11:10:27;22.10;75.40
2995;DHT22;35277;49.890;8.222;2023-01-05T11:13:01;22.10;75.90
2995;DHT22;35277;49.890;8.222;2023-01-05T11:15:31;22.10;75.90
2995;DHT22;35277;49.890;8.222;2023-01-05T11:18:01;22.10;75.80
2995;DHT22;35277;49.890;8.222;2023-01-05T11:20:29;22.10;75.80
2995;DHT22;35277;49.890;8.222;2023-01-05T11:22:57;22.00;75.70
2995;DHT22;35277;49.890;8.222;2023-01-05T11:25:26;22.00;75.60
2995;DHT22;35277;49.890;8.222;2023-01-05T11:28:09;22.10;75.60
2995;DHT22;35277;49.890;8.222;2023-01-05T11:30:44;22.10;75.40
2995;DHT22;35277;49.890;8.222;2023-01-05T11:33:22;22.10;75.20
2995;DHT22;35277;49.890;8.222;2023-01-05T11:35:51;22.00;74.90
2995;DHT22;35277;49.890;8.222;2023-01-05T11:38:23;22.00;74.30
2995;DHT22;35277;49.890;8.222;2023-01-05T11:40:53;22.00;73.70
2995;DHT22;35277;49.890;8.222;2023-01-05T11:43:24;21.90;73.50
2995;DHT22;35277;49.890;8.222;2023-01-05T11:45:55;21.90;73.50
2995;DHT22;35277;49.890;8.222;2023-01-05T11:48:27;21.90;73.40
2995;DHT22;35277;49.890;8.222;2023-01-05T11:50:57;21.90;73.30
2995;DHT22;35277;49.890;8.222;2023-01-05T11:53:36;21.90;73.20
2995;DHT22;35277;49.890;8.222;2023-01-05T11:56:16;21.90;73.10
2995;DHT22;35277;49.890;8.222;2023-01-05T11:58:46;21.90;73.00
2995;DHT22;35277;49.890;8.222;2023-01-05T12:01:46;22.00;73.10
2995;DHT22;35277;49.890;8.222;2023-01-05T12:04:46;22.00;73.10
2995;DHT22;35277;49.890;8.222;2023-01-05T12:07:27;22.00;73.10
2995;DHT22;35277;49.890;8.222;2023-01-05T12:10:00;22.00;73.00
2995;DHT22;35277;49.890;8.222;2023-01-05T12:12:39;22.00;73.00
2995;DHT22;35277;49.890;8.222;2023-01-05T12:15:41;22.00;73.00
2995;DHT22;35277;49.890;8.222;2023-01-05T12:18:23;22.00;73.00
2995;DHT22;35277;49.890;8.222;2023-01-05T12:21:01;22.00;72.90
2995;DHT22;35277;49.890;8.222;2023-01-05T12:23:55;22.00;72.90
2995;DHT22;35277;49.890;8.222;2023-01-05T12:26:26;22.00;73.00
2995;DHT22;35277;49.890;8.222;2023-01-05T12:29:17;22.00;72.90
2995;DHT22;35277;49.890;8.222;2023-01-05T12:32:29;22.00;72.90
2995;DHT22;35277;49.890;8.222;2023-01-05T12:35:40;22.00;72.90
2995;DHT22;35277;49.890;8.222;2023-01-05T12:38:32;22.00;72.90
2995;DHT22;35277;49.890;8.222;2023-01-05T12:41:22;22.00;72.90
2995;DHT22;35277;49.890;8.222;2023-01-05T12:44:05;22.00;72.80
2995;DHT22;35277;49.890;8.222;2023-01-05T12:46:46;22.00;72.80
2995;DHT22;35277;49.890;8.222;2023-01-05T12:49:20;22.10;73.00
2995;DHT22;35277;49.890;8.222;2023-01-05T12:51:54;22.10;72.90
2995;DHT22;35277;49.890;8.222;2023-01-05T12:54:39;22.00;72.80
2995;DHT22;35277;49.890;8.222;2023-01-05T12:57:10;22.10;72.90
2995;DHT22;35277;49.890;8.222;2023-01-05T12:59:47;22.10;72.90
2995;DHT22;35277;49.890;8.222;2023-01-05T13:02:25;22.10;72.90
2995;DHT22;35277;49.890;8.222;2023-01-05T13:04:58;22.10;72.90
2995;DHT22;35277;49.890;8.222;2023-01-05T13:07:32;22.10;73.30
2995;DHT22;35277;49.890;8.222;2023-01-05T13:10:05;22.10;72.90
2995;DHT22;35277;49.890;8.222;2023-01-05T13:12:35;22.10;72.90
2995;DHT22;35277;49.890;8.222;2023-01-05T13:15:14;22.20;73.00
2995;DHT22;35277;49.890;8.222;2023-01-05T13:17:45;22.20;73.10
2995;DHT22;35277;49.890;8.222;2023-01-05T13:20:22;22.20;73.10
2995;DHT22;35277;49.890;8.222;2023-01-05T13:22:57;22.20;73.10
2995;DHT22;35277;49.890;8.222;2023-01-05T13:25:29;22.20;73.10
2995;DHT22;35277;49.890;8.222;2023-01-05T13:27:59;22.20;73.10
2995;DHT22;35277;49.890;8.222;2023-01-05T13:30:30;22.20;73.10
2995;DHT22;35277;49.890;8.222;2023-01-05T13:33:15;22.20;73.10
2995;DHT22;35277;49.890;8.222;2023-01-05T13:35:52;22.20;73.00
2995;DHT22;35277;49.890;8.222;2023-01-05T13:38:53;22.20;73.10
2995;DHT22;35277;49.890;8.222;2023-01-05T13:41:31;22.20;73.00
2995;DHT22;35277;49.890;8.222;2023-01-05T13:44:16;22.20;73.00
2995;DHT22;35277;49.890;8.222;2023-01-05T13:47:04;22.10;72.90
2995;DHT22;35277;49.890;8.222;2023-01-05T13:49:56;22.10;72.80
2995;DHT22;35277;49.890;8.222;2023-01-05T13:52:36;22.10;72.80
2995;DHT22;35277;49.890;8.222;2023-01-05T13:55:12;22.10;72.80
2995;DHT22;35277;49.890;8.222;2023-01-05T13:57:53;22.10;72.70
2995;DHT22;35277;49.890;8.222;2023-01-05T14:00:24;22.10;72.80
2995;DHT22;35277;49.890;8.222;2023-01-05T14:02:59;22.10;72.70
2995;DHT22;35277;49.890;8.222;2023-01-05T14:05:29;22.10;72.70
2995;DHT22;35277;49.890;8.222;2023-01-05T14:08:01;22.10;72.80
2995;DHT22;35277;49.890;8.222;2023-01-05T14:10:32;22.10;72.70
2995;DHT22;35277;49.890;8.222;2023-01-05T14:13:01;22.10;72.70
2995;DHT22;35277;49.890;8.222;2023-01-05T14:15:40;22.10;72.70
2995;DHT22;35277;49.890;8.222;2023-01-05T14:18:09;22.10;72.70
2995;DHT22;35277;49.890;8.222;2023-01-05T14:20:42;22.00;72.60
2995;DHT22;35277;49.890;8.222;2023-01-05T14:23:53;22.10;72.70
2995;DHT22;35277;49.890;8.222;2023-01-05T14:32:37;22.10;72.80
2995;DHT22;35277;49.890;8.222;2023-01-05T14:35:18;22.00;72.60
2995;DHT22;35277;49.890;8.222;2023-01-05T14:37:53;22.00;72.70
2995;DHT22;35277;49.890;8.222;2023-01-05T14:40:30;22.00;72.70
2995;DHT22;35277;49.890;8.222;2023-01-05T14:43:01;22.00;72.70
2995;DHT22;35277;49.890;8.222;2023-01-05T14:45:31;22.00;72.70
2995;DHT22;35277;49.890;8.222;2023-01-05T14:48:01;22.00;72.70
2995;DHT22;35277;49.890;8.222;2023-01-05T14:50:33;22.00;72.70
2995;DHT22;35277;49.890;8.222;2023-01-05T14:53:05;22.00;72.70
2995;DHT22;35277;49.890;8.222;2023-01-05T14:55:38;22.00;72.70
2995;DHT22;35277;49.890;8.222;2023-01-05T14:58:12;22.00;72.70
2995;DHT22;35277;49.890;8.222;2023-01-05T15:00:50;22.00;72.70
2995;DHT22;35277;49.890;8.222;2023-01-05T15:03:25;22.00;72.70
2995;DHT22;35277;49.890;8.222;2023-01-05T15:06:04;22.00;72.70
2995;DHT22;35277;49.890;8.222;2023-01-05T15:08:58;22.00;72.70
2995;DHT22;35277;49.890;8.222;2023-01-05T15:11:48;22.00;72.70
2995;DHT22;35277;49.890;8.222;2023-01-05T15:14:31;22.00;72.70
2995;DHT22;35277;49.890;8.222;2023-01-05T15:17:26;22.00;72.70
2995;DHT22;35277;49.890;8.222;2023-01-05T15:20:22;22.00;72.80
2995;DHT22;35277;49.890;8.222;2023-01-05T15:23:04;22.00;72.80
2995;DHT22;35277;49.890;8.222;2023-01-05T15:25:44;22.00;72.80
2995;DHT22;35277;49.890;8.222;2023-01-05T15:28:45;22.00;72.80
2995;DHT22;35277;49.890;8.222;2023-01-05T15:31:26;22.00;72.80
2995;DHT22;35277;49.890;8.222;2023-01-05T15:34:03;22.00;72.80
2995;DHT22;35277;49.890;8.222;2023-01-05T15:36:39;22.00;72.80
2995;DHT22;35277;49.890;8.222;2023-01-05T15:39:28;22.00;72.80
2995;DHT22;35277;49.890;8.222;2023-01-05T15:41:58;22.00;72.80
2995;DHT22;35277;49.890;8.222;2023-01-05T15:44:31;21.90;72.70
2995;DHT22;35277;49.890;8.222;2023-01-05T15:47:01;22.00;72.70
2995;DHT22;35277;49.890;8.222;2023-01-05T15:49:32;22.00;72.70
2995;DHT22;35277;49.890;8.222;2023-01-05T15:52:02;22.00;72.70
2995;DHT22;35277;49.890;8.222;2023-01-05T15:54:31;21.90;72.60
2995;DHT22;35277;49.890;8.222;2023-01-05T15:56:59;21.90;72.60
2995;DHT22;35277;49.890;8.222;2023-01-05T15:59:31;21.90;72.60
2995;DHT22;35277;49.890;8.222;2023-01-05T16:01:59;21.90;72.60
2995;DHT22;35277;49.890;8.222;2023-01-05T16:04:27;21.90;72.50
2995;DHT22;35277;49.890;8.222;2023-01-05T16:06:58;21.90;72.50
2995;DHT22;35277;49.890;8.222;2023-01-05T16:09:31;21.90;72.50
2995;DHT22;35277;49.890;8.222;2023-01-05T16:12:04;21.90;72.50
2995;DHT22;35277;49.890;8.222;2023-01-05T16:14:36;21.90;72.50
2995;DHT22;35277;49.890;8.222;2023-01-05T16:17:09;21.90;72.50
2995;DHT22;35277;49.890;8.222;2023-01-05T16:19:41;21.90;72.60
2995;DHT22;35277;49.890;8.222;2023-01-05T16:22:16;21.90;72.60
2995;DHT22;35277;49.890;8.222;2023-01-05T16:24:52;21.90;72.60
2995;DHT22;35277;49.890;8.222;2023-01-05T16:27:21;21.90;72.60
2995;DHT22;35277;49.890;8.222;2023-01-05T16:29:50;21.90;72.70
2995;DHT22;35277;49.890;8.222;2023-01-05T16:32:26;21.90;72.70
2995;DHT22;35277;49.890;8.222;2023-01-05T16:35:18;21.90;72.70